createdAt,value
2022-09-04T00:02:38.873Z,16.35
2022-09-04T00:05:20.021Z,15.00
2022-09-04T00:07:56.472Z,13.57
2022-09-04T00:10:49.727Z,13.55
2022-09-04T00:13:36.595Z,12.63
2022-09-04T00:16:23.432Z,18.67
2022-09-04T00:19:05.565Z,14.27
2022-09-04T00:24:10.665Z,15.73
2022-09-04T00:26:54.465Z,16.00
2022-09-04T00:29:36.452Z,17.25
2022-09-04T00:35:14.710Z,12.43
2022-09-04T00:37:59.054Z,16.58
2022-09-04T00:40:31.705Z,16.73
2022-09-04T00:43:02.806Z,12.40
2022-09-04T00:46:01.008Z,16.30
2022-09-04T00:49:03.213Z,18.25
2022-09-04T00:51:54.741Z,16.55
2022-09-04T00:54:58.907Z,11.27
2022-09-04T00:57:55.229Z,12.93
2022-09-04T01:00:25.540Z,13.90
2022-09-04T01:03:07.368Z,15.45
2022-09-04T01:06:05.555Z,15.00
2022-09-04T01:09:01.349Z,14.35
2022-09-04T01:11:40.682Z,13.45
2022-09-04T01:14:34.473Z,13.43
2022-09-04T01:17:30.540Z,16.25
2022-09-04T01:20:31.487Z,13.57
2022-09-04T01:23:16.656Z,13.00
2022-09-04T01:26:11.480Z,13.43
2022-09-04T01:29:07.374Z,17.13
2022-09-04T01:31:50.689Z,16.08
2022-09-04T01:34:36.479Z,15.38
2022-09-04T01:37:44.298Z,13.80
2022-09-04T01:40:35.489Z,15.05
2022-09-04T01:45:59.447Z,18.70
2022-09-04T01:48:38.640Z,14.55
2022-09-04T01:51:18.318Z,14.38
2022-09-04T01:54:16.638Z,16.30
2022-09-04T01:57:08.587Z,12.50
2022-09-04T02:00:10.364Z,14.88
2022-09-04T02:03:04.585Z,15.40
2022-09-04T02:05:40.784Z,15.38
2022-09-04T02:08:45.489Z,11.68
2022-09-04T02:11:28.140Z,17.48
2022-09-04T02:14:15.622Z,11.90
2022-09-04T02:17:02.283Z,16.23
2022-09-04T02:19:44.062Z,14.93
2022-09-04T02:22:33.759Z,21.80
2022-09-04T02:25:00.773Z,15.38
2022-09-04T02:27:40.116Z,15.30
2022-09-04T02:30:13.688Z,16.23
2022-09-04T02:33:06.187Z,11.82
2022-09-04T02:36:02.454Z,13.38
2022-09-04T02:38:38.796Z,14.07
2022-09-04T02:41:16.338Z,18.17
2022-09-04T02:43:46.326Z,18.92
2022-09-04T02:46:42.575Z,14.48
2022-09-04T02:50:01.750Z,14.25
2022-09-04T02:52:59.706Z,20.98
2022-09-04T02:55:51.446Z,15.15
2022-09-04T02:58:47.687Z,14.82
2022-09-04T03:01:37.684Z,16.98
2022-09-04T03:04:19.983Z,15.68
2022-09-04T03:06:59.700Z,15.43
2022-09-04T03:09:37.667Z,12.65
2022-09-04T03:12:11.133Z,12.95
2022-09-04T03:15:14.209Z,16.70
2022-09-04T03:17:57.801Z,14.38
2022-09-04T03:20:28.147Z,11.93
2022-09-04T03:23:04.913Z,17.98
2022-09-04T03:25:40.677Z,12.85
2022-09-04T03:28:18.724Z,19.50
2022-09-04T03:30:46.681Z,16.52
2022-09-04T03:33:19.351Z,14.52
2022-09-04T03:35:58.416Z,13.18
2022-09-04T03:38:29.346Z,16.65
2022-09-04T03:41:08.635Z,14.15
2022-09-04T03:44:04.606Z,16.00
2022-09-04T03:46:48.196Z,13.57
2022-09-04T03:49:21.259Z,16.17
2022-09-04T03:52:09.909Z,15.90
2022-09-04T03:55:13.696Z,20.48
2022-09-04T03:58:00.868Z,14.05
2022-09-04T04:00:59.626Z,15.85
2022-09-04T04:03:52.438Z,15.20
2022-09-04T04:06:43.032Z,13.25
2022-09-04T04:09:29.593Z,15.45
2022-09-04T04:12:13.461Z,14.82
2022-09-04T04:14:43.164Z,16.33
2022-09-04T04:17:48.323Z,14.27
2022-09-04T04:20:38.149Z,17.58
2022-09-04T04:23:29.450Z,18.17
2022-09-04T04:26:10.507Z,15.97
2022-09-04T04:28:57.096Z,15.65
2022-09-04T04:31:45.342Z,13.93
2022-09-04T04:34:33.580Z,14.98
2022-09-04T04:37:13.522Z,16.52
2022-09-04T04:39:53.070Z,12.85
2022-09-04T04:42:42.827Z,16.85
2022-09-04T04:45:44.780Z,13.57
2022-09-04T04:48:48.997Z,11.27
2022-09-04T04:51:46.912Z,15.93
2022-09-04T04:54:38.548Z,16.98
2022-09-04T04:57:26.899Z,15.30
2022-09-04T05:00:08.404Z,14.63
2022-09-04T05:05:30.639Z,17.90
2022-09-04T05:08:08.551Z,12.82
2022-09-04T05:10:45.539Z,18.98
2022-09-04T05:13:34.769Z,16.35
2022-09-04T05:16:33.348Z,14.65
2022-09-04T05:19:28.218Z,11.93
2022-09-04T05:22:34.411Z,14.48
2022-09-04T05:25:14.359Z,13.85
2022-09-04T05:27:58.778Z,16.05
2022-09-04T05:30:48.886Z,14.63
2022-09-04T05:33:24.400Z,15.90
2022-09-04T05:36:20.010Z,15.27
2022-09-04T05:39:03.483Z,17.50
2022-09-04T05:42:07.003Z,13.52
2022-09-04T05:45:06.356Z,14.75
2022-09-04T05:47:58.575Z,13.60
2022-09-04T05:50:52.971Z,16.95
2022-09-04T05:54:00.893Z,16.05
2022-09-04T05:56:43.247Z,17.50
2022-09-04T05:59:42.539Z,15.18
2022-09-04T06:02:39.509Z,15.60
2022-09-04T06:05:47.009Z,16.77
2022-09-04T06:08:28.298Z,14.27
2022-09-04T06:11:16.920Z,16.90
2022-09-04T06:14:11.735Z,16.13
2022-09-04T06:16:50.047Z,17.35
2022-09-04T06:19:35.427Z,20.30
2022-09-04T06:22:33.364Z,14.73
2022-09-04T06:25:30.550Z,15.38
2022-09-04T06:28:41.212Z,15.50
2022-09-04T06:31:52.765Z,18.77
2022-09-04T06:34:56.379Z,16.95
2022-09-04T06:37:47.138Z,15.77
2022-09-04T06:40:26.327Z,13.95
2022-09-04T06:42:58.862Z,20.00
2022-09-04T06:45:35.706Z,13.48
2022-09-04T06:48:34.099Z,16.88
2022-09-04T06:51:27.116Z,16.63
2022-09-04T06:54:15.399Z,12.48
2022-09-04T06:56:54.236Z,11.30
2022-09-04T06:59:53.041Z,13.32
2022-09-04T07:02:39.043Z,8.93
2022-09-04T07:05:19.971Z,9.30
2022-09-04T07:08:05.635Z,14.05
2022-09-04T07:10:44.733Z,8.68
2022-09-04T07:13:50.778Z,8.93
2022-09-04T07:16:45.069Z,8.35
2022-09-04T07:19:36.473Z,7.90
2022-09-04T07:22:18.013Z,7.90
2022-09-04T07:24:56.975Z,9.32
2022-09-04T07:27:48.310Z,9.13
2022-09-04T07:30:17.500Z,8.30
2022-09-04T07:32:53.511Z,10.50
2022-09-04T07:35:51.723Z,10.48
2022-09-04T07:38:50.920Z,7.28
2022-09-04T07:41:20.032Z,9.63
2022-09-04T07:43:57.466Z,9.75
2022-09-04T07:46:47.031Z,8.65
2022-09-04T07:49:27.764Z,9.75
2022-09-04T07:52:20.032Z,7.03
2022-09-04T07:54:58.869Z,10.38
2022-09-04T07:57:45.945Z,9.25
2022-09-04T08:00:18.514Z,10.25
2022-09-04T08:03:01.483Z,8.40
2022-09-04T08:05:36.641Z,8.93
2022-09-04T08:08:30.603Z,6.63
2022-09-04T08:11:02.481Z,6.97
2022-09-04T08:14:15.441Z,6.97
2022-09-04T08:17:03.352Z,8.85
2022-09-04T08:19:54.801Z,12.25
2022-09-04T08:22:38.995Z,6.50
2022-09-04T08:25:29.375Z,8.98
2022-09-04T08:28:17.521Z,7.50
2022-09-04T08:31:01.789Z,8.95
2022-09-04T08:33:54.262Z,9.20
2022-09-04T08:36:32.439Z,6.82
2022-09-04T08:39:09.879Z,8.27
2022-09-04T08:41:54.661Z,7.93
2022-09-04T08:44:24.668Z,6.03
2022-09-04T08:47:12.948Z,6.30
2022-09-04T08:50:01.598Z,7.20
2022-09-04T08:53:06.492Z,5.50
2022-09-04T08:55:49.554Z,6.53
2022-09-04T08:58:38.416Z,7.15
2022-09-04T09:01:19.207Z,6.68
2022-09-04T09:03:52.318Z,6.60
2022-09-04T09:06:45.420Z,8.90
2022-09-04T09:09:20.581Z,8.40
2022-09-04T09:12:21.154Z,7.93
2022-09-04T09:15:03.110Z,8.48
2022-09-04T09:17:56.376Z,6.30
2022-09-04T09:20:54.579Z,6.28
2022-09-04T09:23:32.038Z,5.10
2022-09-04T09:26:29.487Z,5.28
2022-09-04T09:29:30.545Z,8.00
2022-09-04T09:32:12.833Z,4.68
2022-09-04T09:35:01.537Z,5.07
2022-09-04T09:38:04.814Z,5.43
2022-09-04T09:40:46.750Z,8.82
2022-09-04T09:43:13.746Z,4.55
2022-09-04T09:45:51.410Z,4.93
2022-09-04T09:48:41.708Z,8.57
2022-09-04T09:51:41.135Z,7.43
2022-09-04T09:54:45.674Z,5.60
2022-09-04T09:57:34.214Z,5.25
2022-09-04T10:00:22.864Z,7.30
2022-09-04T10:03:26.074Z,10.35
2022-09-04T10:06:27.177Z,7.45
2022-09-04T10:09:30.749Z,10.55
2022-09-04T10:12:00.781Z,9.38
2022-09-04T10:15:05.180Z,6.93
2022-09-04T10:17:57.277Z,8.18
2022-09-04T10:20:33.462Z,9.77
2022-09-04T10:23:30.876Z,7.72
2022-09-04T10:26:23.718Z,9.68
2022-09-04T10:29:31.586Z,7.30
2022-09-04T10:32:01.360Z,10.05
2022-09-04T10:34:54.454Z,10.10
2022-09-04T10:37:39.872Z,9.35
2022-09-04T10:40:31.566Z,8.88
2022-09-04T10:43:20.427Z,6.82
2022-09-04T10:45:58.548Z,8.93
2022-09-04T10:48:28.921Z,9.07
2022-09-04T10:51:34.548Z,7.23
2022-09-04T10:54:08.053Z,8.60
2022-09-04T10:56:50.138Z,8.07
2022-09-04T10:59:42.602Z,9.13
2022-09-04T11:02:42.122Z,8.18
2022-09-04T11:05:29.908Z,7.40
2022-09-04T11:08:39.771Z,9.60
2022-09-04T11:11:52.936Z,7.75
2022-09-04T11:14:42.848Z,6.70
2022-09-04T11:17:31.024Z,7.25
2022-09-04T11:20:22.692Z,9.88
2022-09-04T11:23:08.237Z,9.40
2022-09-04T11:26:06.015Z,8.93
2022-09-04T11:28:57.084Z,8.23
2022-09-04T11:31:48.732Z,12.27
2022-09-04T11:34:21.875Z,5.15
2022-09-04T11:37:18.870Z,8.15
2022-09-04T11:40:06.345Z,10.85
2022-09-04T11:43:01.386Z,11.18
2022-09-04T11:45:49.462Z,9.05
2022-09-04T11:48:28.586Z,13.93
2022-09-04T11:51:04.131Z,11.95
2022-09-04T11:53:55.779Z,12.40
2022-09-04T11:56:54.906Z,8.85
2022-09-04T11:59:53.023Z,6.13
2022-09-04T12:02:40.768Z,6.53
2022-09-04T12:05:24.851Z,6.75
2022-09-04T12:08:29.273Z,6.63
2022-09-04T12:11:20.804Z,9.05
2022-09-04T12:14:21.755Z,8.60
2022-09-04T12:16:51.740Z,9.73
2022-09-04T12:19:39.961Z,8.85
2022-09-04T12:22:44.512Z,7.38
2022-09-04T12:25:23.814Z,10.38
2022-09-04T12:28:25.023Z,5.68
2022-09-04T12:31:07.876Z,5.97
2022-09-04T12:34:16.964Z,5.90
2022-09-04T12:37:16.281Z,9.63
2022-09-04T12:40:22.022Z,8.63
2022-09-04T12:43:16.520Z,8.40
2022-09-04T12:46:15.389Z,7.15
2022-09-04T12:49:08.755Z,6.28
2022-09-04T12:52:19.368Z,8.27
2022-09-04T12:55:01.505Z,8.32
2022-09-04T12:57:55.707Z,6.90
2022-09-04T13:00:27.151Z,12.30
2022-09-04T13:03:30.875Z,12.60
2022-09-04T13:06:25.843Z,13.85
2022-09-04T13:09:04.594Z,13.77
2022-09-04T13:11:49.734Z,9.73
2022-09-04T13:14:28.562Z,7.60
2022-09-04T13:17:07.032Z,8.43
2022-09-04T13:20:00.609Z,6.88
2022-09-04T13:22:41.294Z,8.50
2022-09-04T13:25:28.250Z,13.02
2022-09-04T13:28:20.292Z,6.32
2022-09-04T13:31:19.456Z,7.03
2022-09-04T13:34:23.998Z,5.82
2022-09-04T13:37:32.358Z,5.28
2022-09-04T13:40:18.680Z,5.45
2022-09-04T13:43:06.442Z,5.63
2022-09-04T13:45:40.964Z,8.18
2022-09-04T13:48:45.835Z,5.28
2022-09-04T13:51:24.241Z,8.80
2022-09-04T13:53:57.409Z,6.13
2022-09-04T13:56:31.720Z,7.63
2022-09-04T13:59:08.795Z,8.48
2022-09-04T14:01:46.007Z,6.55
2022-09-04T14:04:19.650Z,6.82
2022-09-04T14:06:48.031Z,8.00
2022-09-04T14:09:16.923Z,5.28
2022-09-04T14:11:50.775Z,9.35
2022-09-04T14:14:59.786Z,6.43
2022-09-04T14:17:49.774Z,5.97
2022-09-04T14:20:26.700Z,5.43
2022-09-04T14:23:12.470Z,4.40
2022-09-04T14:25:55.220Z,6.45
2022-09-04T14:28:49.937Z,5.88
2022-09-04T14:31:46.515Z,5.35
2022-09-04T14:34:36.279Z,5.57
2022-09-04T14:37:16.255Z,10.95
2022-09-04T14:39:48.553Z,5.30
2022-09-04T14:42:58.293Z,7.57
2022-09-04T14:46:02.601Z,5.28
2022-09-04T14:48:36.223Z,6.88
2022-09-04T14:51:15.252Z,6.55
2022-09-04T14:53:48.578Z,4.45
2022-09-04T14:56:27.415Z,6.78
2022-09-04T14:59:15.432Z,7.95
2022-09-04T15:02:07.635Z,6.28
2022-09-04T15:04:49.585Z,10.38
2022-09-04T15:09:50.362Z,4.70
2022-09-04T15:12:25.752Z,5.93
2022-09-04T15:15:07.249Z,7.03
2022-09-04T15:17:38.456Z,10.32
2022-09-04T15:23:20.388Z,5.75
2022-09-04T15:26:02.182Z,7.88
2022-09-04T15:31:31.608Z,7.13
2022-09-04T15:34:06.278Z,5.25
2022-09-04T15:36:36.038Z,6.80
2022-09-04T15:39:06.446Z,5.93
2022-09-04T15:41:34.181Z,5.75
2022-09-04T15:44:14.427Z,8.32
2022-09-04T15:46:57.555Z,4.88
2022-09-04T15:49:49.552Z,4.95
2022-09-04T15:52:29.816Z,6.78
2022-09-04T15:55:02.422Z,6.80
2022-09-04T15:57:49.030Z,5.57
2022-09-04T16:00:22.819Z,5.15
2022-09-04T16:03:02.711Z,6.97
2022-09-04T16:05:41.427Z,8.48
2022-09-04T16:08:54.586Z,6.60
2022-09-04T16:11:27.802Z,10.50
2022-09-04T16:14:45.960Z,6.75
2022-09-04T16:17:20.214Z,7.35
2022-09-04T16:20:24.774Z,10.40
2022-09-04T16:22:58.502Z,5.82
2022-09-04T16:25:31.434Z,5.53
2022-09-04T16:28:10.578Z,7.22
2022-09-04T16:30:44.241Z,6.00
2022-09-04T16:33:30.734Z,5.75
2022-09-04T16:36:04.789Z,8.05
2022-09-04T16:38:46.523Z,6.68
2022-09-04T16:41:25.711Z,5.57
2022-09-04T16:44:14.043Z,9.57
2022-09-04T16:47:06.181Z,7.13
2022-09-04T16:50:05.966Z,6.13
2022-09-04T16:52:43.756Z,8.88
2022-09-04T16:55:21.607Z,6.13
2022-09-04T16:58:07.488Z,6.38
2022-09-04T17:00:53.190Z,9.15
2022-09-04T17:03:24.151Z,9.02
2022-09-04T17:06:06.973Z,5.70
2022-09-04T17:08:38.243Z,10.00
2022-09-04T17:14:13.846Z,7.07
2022-09-04T17:16:57.257Z,6.18
2022-09-04T17:19:25.502Z,7.43
2022-09-04T17:25:26.431Z,7.78
2022-09-04T17:29:16.667Z,10.75
2022-09-04T17:29:22.447Z,6.03
2022-09-04T17:31:45.494Z,4.70
2022-09-04T17:40:33.131Z,6.72
2022-09-04T17:40:56.730Z,6.68
2022-09-04T17:41:38.134Z,5.22
2022-09-04T17:44:03.630Z,6.30
2022-09-04T17:46:48.775Z,4.60
2022-09-04T17:49:22.439Z,5.93
2022-09-04T17:52:03.235Z,8.25
2022-09-04T17:54:32.841Z,5.70
2022-09-04T17:57:03.207Z,6.18
2022-09-04T17:59:53.476Z,8.35
2022-09-04T18:02:45.413Z,4.80
2022-09-04T18:08:09.320Z,4.78
2022-09-04T18:10:57.770Z,5.57
2022-09-04T18:13:39.488Z,6.95
2022-09-04T18:16:15.805Z,10.35
2022-09-04T18:18:53.431Z,5.25
2022-09-04T18:21:45.783Z,4.47
2022-09-04T18:24:31.239Z,8.02
2022-09-04T18:27:08.239Z,6.40
2022-09-04T18:31:38.827Z,6.97
2022-09-04T18:37:11.475Z,4.47
2022-09-04T18:37:22.456Z,7.45
2022-09-04T18:39:09.069Z,4.25
2022-09-04T18:48:54.911Z,5.82
2022-09-04T18:50:28.503Z,3.90
2022-09-04T18:50:39.643Z,4.25
2022-09-04T18:51:18.179Z,5.90
2022-09-04T18:53:44.946Z,6.05
2022-09-04T18:56:24.097Z,3.45
2022-09-04T18:58:58.013Z,4.15
2022-09-04T19:01:41.726Z,5.18
2022-09-04T19:04:50.200Z,7.97
2022-09-04T19:07:35.297Z,4.70
2022-09-04T19:10:19.323Z,3.70
2022-09-04T19:12:52.517Z,10.80
2022-09-04T19:15:36.631Z,6.68
2022-09-04T19:18:27.027Z,4.13
2022-09-04T19:21:14.924Z,2.05
2022-09-04T19:23:59.687Z,5.60
2022-09-04T19:26:39.907Z,5.40
2022-09-04T19:29:25.003Z,3.83
2022-09-04T19:32:12.689Z,3.40
2022-09-04T19:35:03.435Z,3.42
2022-09-04T19:40:49.137Z,3.30
2022-09-04T19:45:57.428Z,4.95
2022-09-04T19:46:12.706Z,4.30
2022-09-04T19:47:28.696Z,7.03
2022-09-04T19:53:22.374Z,3.85
2022-09-04T19:53:42.149Z,4.70
2022-09-04T19:57:31.180Z,3.65
2022-09-04T19:59:35.456Z,5.22
2022-09-04T20:02:21.348Z,4.55
2022-09-04T20:04:53.013Z,3.35
2022-09-04T20:08:04.805Z,4.03
2022-09-04T20:10:42.108Z,3.83
2022-09-04T20:13:18.443Z,3.92
2022-09-04T20:16:00.721Z,5.68
2022-09-04T20:18:39.453Z,3.78
2022-09-04T20:21:07.894Z,6.97
2022-09-04T20:23:52.056Z,4.10
2022-09-04T20:26:35.528Z,8.95
2022-09-04T20:29:19.898Z,6.55
2022-09-04T20:31:50.705Z,3.28
2022-09-04T20:34:26.940Z,2.97
2022-09-04T20:37:19.324Z,2.97
2022-09-04T20:40:31.368Z,5.43
2022-09-04T20:43:03.967Z,3.33
2022-09-04T20:48:17.397Z,3.85
2022-09-04T20:52:59.186Z,2.78
2022-09-04T20:53:06.043Z,5.23
2022-09-04T20:54:50.999Z,2.88
2022-09-04T21:00:54.780Z,3.17
2022-09-04T21:03:11.860Z,3.83
2022-09-04T21:03:34.937Z,5.93
2022-09-04T21:06:29.993Z,9.10
2022-09-04T21:09:17.608Z,3.35
2022-09-04T21:11:53.141Z,3.50
2022-09-04T21:14:30.033Z,3.72
2022-09-04T21:17:34.707Z,2.75
2022-09-04T21:20:21.314Z,3.47
2022-09-04T21:22:54.220Z,5.65
2022-09-04T21:25:46.326Z,4.35
2022-09-04T21:31:32.917Z,3.00
2022-09-04T21:34:44.043Z,2.92
2022-09-04T21:37:29.950Z,1.90
2022-09-04T21:40:49.919Z,2.08
2022-09-04T21:43:38.727Z,3.15
2022-09-04T21:46:48.533Z,2.10
2022-09-04T21:49:27.038Z,2.17
2022-09-04T21:52:27.771Z,1.67
2022-09-04T21:58:44.017Z,2.05
2022-09-04T22:02:26.279Z,3.78
2022-09-04T22:02:44.808Z,3.28
2022-09-04T22:04:31.548Z,1.83
2022-09-04T22:10:27.516Z,2.95
2022-09-04T22:13:39.072Z,3.78
2022-09-04T22:13:58.737Z,3.85
2022-09-04T22:16:42.548Z,3.55
2022-09-04T22:19:36.475Z,2.25
2022-09-04T22:22:25.469Z,1.27
2022-09-04T22:25:06.951Z,3.25
2022-09-04T22:28:07.990Z,3.08
2022-09-04T22:31:04.718Z,1.13
2022-09-04T22:34:14.161Z,1.98
2022-09-04T22:37:00.762Z,7.63
2022-09-04T22:39:39.835Z,0.70
2022-09-04T22:42:38.029Z,1.90
2022-09-04T22:45:31.157Z,1.65
2022-09-04T22:48:16.158Z,3.38
2022-09-04T22:50:50.112Z,2.55
2022-09-04T22:53:32.911Z,4.15
2022-09-04T22:56:23.573Z,1.13
2022-09-04T22:59:26.193Z,1.95
2022-09-04T23:02:20.227Z,2.05
2022-09-04T23:05:22.949Z,1.85
2022-09-04T23:13:43.149Z,2.40
2022-09-04T23:13:59.327Z,2.40
2022-09-04T23:14:27.925Z,2.83
2022-09-04T23:17:24.560Z,1.27
2022-09-04T23:26:35.720Z,3.85
2022-09-04T23:26:42.858Z,1.08
2022-09-04T23:26:43.056Z,3.10
2022-09-04T23:29:22.400Z,1.02
2022-09-04T23:32:40.453Z,1.23
2022-09-04T23:35:51.057Z,1.33
2022-09-04T23:39:04.579Z,0.90
2022-09-04T23:42:13.118Z,3.03
2022-09-04T23:45:13.393Z,4.80
2022-09-04T23:48:01.720Z,1.75
2022-09-04T23:51:24.377Z,0.60
2022-09-04T23:54:28.695Z,4.20
2022-09-04T23:57:26.002Z,3.35
